Aérodrome :
LOGIN :

S'inscrire | Disclaimer

   EN    FR    IT 

 










Légende :    VFR   VFR Marginal   IFR   IFR Intensif   IFR Très Intensif
Visi : 
Plafond : 
>= 8 km
>= 3000ft
5 à 8 km
1000 à 3000 ft
1500m à 5 km
500 à 1000 ft
800 à 1500m
200 à 500 ft
< 800m
< 200 ft
Symboles :   Orages  Brouillard  Fortes neiges  Fortes précipitations  Vent > 20 kt
SIGMETs :   Divers  Orages  Givrage  Turbulence  Onde Orograph.  Cendres Volcan.






- Altitude de l'aérodrome : 247 ft
- Code IATA : BLL


EKBI - Billund

DERNIER METAR :
  • 151250Z AUTO 07019KT 9999 OVC017/// 07/04 Q1010

METARs EXPIRÉS :
  • 151220Z AUTO 07018G33KT 9999 OVC017/// 07/04 Q1010
  • 151150Z AUTO 07017G27KT 9999 OVC017/// 07/04 Q1010
  • 151120Z AUTO 07017KT 9999 OVC017/// 06/04 Q1010
  • 151050Z AUTO 07019KT 9999 OVC018/// 06/04 Q1011
  • 151020Z AUTO 07016KT 9999 OVC018/// 06/03 Q1011

TAF TAF EKBI
Valide du 15 à 12h jusqu'au 16 à 12h UTC


151113Z 1512/1612 08018G28KT 9999 BKN018
TEMPO 1512/1515 08015KT BKN012
BECMG 1515/1518 BKN010
BECMG 1518/1520 BKN006
BECMG 1520/1522 08012KT 4000 BR BKN002
TEMPO 1522/1609 1200 -RADZ BKN006
TEMPO 1609/1612 2000 -RADZ BKN008



MET'MAP, la Météo Aéronautique d'un coup d'oeil ! - Copyright ORBIFLY Décembre 2007 - Disclaimer

ORBIFLY MET'MAP TEAM :

Programmation & Développement : Alexandra Zaïnal
Conception & Développement : Baudouin d'Aumeries
Co-Programmation & Développement : Marc-Olivier Méhu
Soutien technique & logistique : Manuel Goepfert

Contact : metmap@orbifly.com




SOURCES & CREDITS :

   NOAA